createdAt,value
2022-10-23T00:02:23.097Z,5.38
2022-10-23T00:09:37.607Z,3.42
2022-10-23T00:12:44.956Z,5.10
2022-10-23T00:26:42.345Z,4.55
2022-10-23T00:29:10.735Z,3.97
2022-10-23T00:31:38.424Z,4.47
2022-10-23T00:34:08.422Z,3.50
2022-10-23T00:36:38.317Z,3.80
2022-10-23T00:39:17.241Z,4.45
2022-10-23T01:01:52.452Z,3.78
2022-10-23T01:04:19.752Z,4.88
2022-10-23T01:07:01.652Z,3.28
2022-10-23T01:09:55.773Z,4.95
2022-10-23T01:12:30.821Z,5.82
2022-10-23T01:15:23.456Z,4.10
2022-10-23T01:21:35.005Z,3.53
2022-10-23T01:24:39.045Z,3.83
2022-10-23T01:31:11.943Z,4.18
2022-10-23T01:36:42.745Z,3.83
2022-10-23T01:39:21.762Z,4.28
2022-10-23T01:44:52.059Z,3.83
2022-10-23T01:51:09.888Z,3.63
2022-10-23T01:53:42.151Z,3.75
2022-10-23T01:56:15.185Z,3.15
2022-10-23T01:58:46.466Z,3.50
2022-10-23T02:01:15.550Z,3.38
2022-10-23T02:03:43.957Z,4.30
2022-10-23T02:06:11.277Z,4.15
2022-10-23T02:08:38.383Z,3.45
2022-10-23T02:11:58.950Z,4.53
2022-10-23T02:14:44.120Z,4.50
2022-10-23T02:17:31.544Z,3.50
2022-10-23T02:20:07.336Z,3.25
2022-10-23T02:22:58.812Z,4.38
2022-10-23T02:25:36.358Z,3.78
2022-10-23T02:28:18.007Z,3.90
2022-10-23T02:30:47.467Z,3.88
2022-10-23T02:33:55.371Z,4.40
2022-10-23T02:40:11.552Z,2.75
2022-10-23T02:43:03.263Z,3.35
2022-10-23T02:45:32.980Z,3.88
2022-10-23T02:48:16.949Z,3.70
2022-10-23T02:51:11.907Z,3.65
2022-10-23T02:57:34.942Z,2.95
2022-10-23T03:00:08.048Z,2.63
2022-10-23T03:03:02.312Z,3.65
2022-10-23T03:05:33.267Z,2.92
2022-10-23T03:08:02.901Z,3.72
2022-10-23T03:10:29.572Z,3.47
2022-10-23T03:12:56.499Z,3.20
2022-10-23T03:15:23.203Z,3.15
2022-10-23T03:21:30.732Z,3.75
2022-10-23T03:23:57.420Z,3.15
2022-10-23T03:29:20.906Z,3.00
2022-10-23T03:32:28.748Z,3.28
2022-10-23T03:42:37.803Z,4.15
2022-10-23T03:45:04.956Z,3.45
2022-10-23T03:47:32.776Z,3.20
2022-10-23T03:49:59.501Z,2.72
2022-10-23T03:52:26.194Z,3.72
2022-10-23T03:54:52.892Z,2.90
2022-10-23T03:57:19.606Z,3.50
2022-10-23T03:59:52.583Z,3.42
2022-10-23T04:02:22.307Z,4.47
2022-10-23T04:04:51.805Z,4.20
2022-10-23T04:07:18.578Z,3.20
2022-10-23T04:09:48.056Z,3.58
2022-10-23T04:12:17.789Z,4.10
2022-10-23T04:14:44.571Z,3.65
2022-10-23T04:23:40.397Z,2.88
2022-10-23T04:26:07.145Z,3.38
2022-10-23T04:28:44.088Z,3.25
2022-10-23T04:31:13.895Z,4.72
2022-10-23T04:33:40.702Z,3.60
2022-10-23T04:36:07.861Z,2.55
2022-10-23T04:38:34.728Z,2.85
2022-10-23T04:41:01.454Z,3.67
2022-10-23T04:43:28.202Z,3.25
2022-10-23T04:45:54.915Z,3.10
2022-10-23T04:48:25.544Z,3.13
2022-10-23T04:51:01.748Z,3.63
2022-10-23T04:53:29.460Z,3.33
2022-10-23T04:55:59.131Z,4.28
2022-10-23T04:58:27.093Z,3.10
2022-10-23T05:00:54.278Z,2.85
2022-10-23T05:03:22.438Z,3.25
2022-10-23T05:05:50.315Z,2.77
2022-10-23T05:08:18.234Z,4.05
2022-10-23T05:11:19.772Z,3.40
2022-10-23T05:13:49.076Z,3.08
2022-10-23T05:16:39.502Z,3.85
2022-10-23T05:19:10.125Z,2.80
2022-10-23T05:21:39.436Z,3.15
2022-10-23T05:24:10.256Z,2.95
2022-10-23T05:26:37.046Z,3.42
2022-10-23T05:29:03.844Z,3.92
2022-10-23T05:31:31.965Z,3.00
2022-10-23T05:34:00.034Z,3.10
2022-10-23T05:36:27.411Z,4.35
2022-10-23T05:38:54.662Z,2.78
2022-10-23T05:41:21.379Z,3.45
2022-10-23T05:43:48.123Z,5.28
2022-10-23T05:46:14.822Z,4.65
2022-10-23T05:48:41.519Z,4.43
2022-10-23T05:51:10.959Z,3.75
2022-10-23T05:53:45.446Z,4.07
2022-10-23T05:56:12.219Z,4.05
2022-10-23T05:58:39.018Z,3.10
2022-10-23T06:01:11.401Z,4.57
2022-10-23T06:03:39.005Z,4.15
2022-10-23T06:06:07.035Z,7.40
2022-10-23T06:08:35.082Z,3.63
2022-10-23T06:11:13.334Z,4.68
2022-10-23T06:13:43.358Z,5.28
2022-10-23T06:16:11.813Z,4.63
2022-10-23T06:18:38.638Z,3.90
2022-10-23T06:21:08.122Z,5.03
2022-10-23T06:23:36.604Z,3.35
2022-10-23T06:26:06.743Z,4.47
2022-10-23T06:28:33.879Z,3.20
2022-10-23T06:31:03.608Z,3.05
2022-10-23T06:33:36.064Z,6.07
2022-10-23T06:36:03.751Z,3.85
2022-10-23T06:38:36.646Z,3.05
2022-10-23T06:41:07.142Z,4.18
2022-10-23T06:43:37.138Z,4.75
2022-10-23T06:46:04.690Z,3.50
2022-10-23T06:48:34.222Z,5.03
2022-10-23T06:53:56.684Z,4.57
2022-10-23T06:56:48.433Z,4.47
2022-10-23T06:59:15.669Z,4.95
2022-10-23T07:01:42.732Z,4.93
2022-10-23T07:04:09.734Z,3.50
2022-10-23T07:06:36.575Z,5.10
2022-10-23T07:09:11.609Z,3.97
2022-10-23T07:11:38.477Z,3.88
2022-10-23T07:14:14.437Z,4.60
2022-10-23T07:16:41.209Z,4.32
2022-10-23T07:19:08.472Z,4.00
2022-10-23T07:21:35.826Z,4.57
2022-10-23T07:24:55.596Z,7.78
2022-10-23T07:27:22.385Z,4.00
2022-10-23T07:29:53.165Z,6.18
2022-10-23T07:36:11.769Z,3.38
2022-10-23T07:38:38.809Z,4.50
2022-10-23T07:41:42.681Z,4.68
2022-10-23T07:47:10.541Z,4.57
2022-10-23T07:50:39.774Z,3.17
2022-10-23T07:53:20.939Z,5.22
2022-10-23T07:55:59.229Z,4.68
2022-10-23T07:58:27.571Z,4.75
2022-10-23T08:00:59.851Z,5.90
2022-10-23T08:03:28.089Z,3.67
2022-10-23T08:05:55.470Z,5.53
2022-10-23T08:08:26.474Z,3.90
2022-10-23T08:10:55.107Z,3.17
2022-10-23T08:13:22.656Z,4.43
2022-10-23T08:15:50.903Z,5.13
2022-10-23T08:18:17.920Z,3.85
2022-10-23T08:20:47.168Z,5.75
2022-10-23T08:23:20.106Z,5.32
2022-10-23T08:25:47.290Z,4.53
2022-10-23T08:28:15.732Z,4.32
2022-10-23T08:30:42.841Z,5.30
2022-10-23T08:33:09.876Z,3.47
2022-10-23T08:35:39.853Z,3.33
2022-10-23T08:38:46.399Z,4.95
2022-10-23T08:41:35.579Z,4.18
2022-10-23T08:44:14.791Z,5.78
2022-10-23T08:46:45.274Z,4.20
2022-10-23T08:49:38.046Z,3.97
2022-10-23T08:52:24.431Z,3.53
2022-10-23T08:55:00.314Z,3.08
2022-10-23T08:57:33.510Z,3.20
2022-10-23T09:00:15.985Z,4.28
2022-10-23T09:08:59.668Z,5.13
2022-10-23T09:11:49.238Z,4.28
2022-10-23T09:14:37.625Z,3.35
2022-10-23T09:17:23.076Z,4.30
2022-10-23T09:19:55.623Z,3.38
2022-10-23T09:22:22.386Z,4.68
2022-10-23T09:24:54.614Z,3.60
2022-10-23T09:27:21.874Z,2.60
2022-10-23T09:30:01.853Z,3.20
2022-10-23T09:32:38.478Z,5.18
2022-10-23T09:35:06.292Z,4.43
2022-10-23T09:37:41.806Z,2.58
2022-10-23T09:40:29.769Z,3.33
2022-10-23T09:43:13.945Z,3.22
2022-10-23T09:45:44.281Z,4.15
2022-10-23T09:48:20.619Z,4.43
2022-10-23T09:51:16.334Z,2.80
2022-10-23T09:53:55.134Z,3.40
2022-10-23T09:56:33.277Z,3.40
2022-10-23T09:59:10.942Z,4.38
2022-10-23T10:01:48.447Z,3.42
2022-10-23T10:04:15.451Z,2.92
2022-10-23T10:06:45.694Z,2.80
2022-10-23T10:09:15.127Z,3.72
2022-10-23T10:12:04.838Z,3.25
2022-10-23T10:14:40.150Z,3.63
2022-10-23T10:17:29.288Z,3.40
2022-10-23T10:20:19.231Z,2.92
2022-10-23T10:23:10.329Z,3.03
2022-10-23T10:28:52.395Z,3.75
2022-10-23T10:31:23.414Z,3.35
2022-10-23T10:34:14.506Z,3.10
2022-10-23T10:36:49.494Z,2.30
2022-10-23T10:39:35.422Z,3.17
2022-10-23T10:42:37.171Z,4.10
2022-10-23T10:45:19.350Z,4.15
2022-10-23T10:48:21.008Z,4.03
2022-10-23T10:51:30.478Z,3.22
2022-10-23T10:54:21.790Z,2.92
2022-10-23T10:56:49.126Z,3.70
2022-10-23T10:59:28.174Z,3.65
2022-10-23T11:02:15.681Z,4.32
2022-10-23T11:05:21.747Z,3.05
2022-10-23T11:08:27.882Z,2.88
2022-10-23T11:10:59.955Z,3.70
2022-10-23T11:16:26.261Z,3.30
2022-10-23T11:19:14.223Z,2.90
2022-10-23T11:21:47.141Z,4.28
2022-10-23T11:28:28.037Z,3.65
2022-10-23T11:31:12.088Z,3.45
2022-10-23T11:34:06.959Z,2.38
2022-10-23T11:37:21.377Z,3.17
2022-10-23T11:44:24.230Z,3.28
2022-10-23T11:47:27.088Z,3.83
2022-10-23T11:50:14.545Z,4.18
2022-10-23T11:53:21.205Z,2.92
2022-10-23T11:56:19.564Z,3.88
2022-10-23T11:58:57.279Z,2.47
2022-10-23T12:01:57.062Z,2.80
2022-10-23T12:04:51.443Z,2.60
2022-10-23T12:07:39.901Z,3.95
2022-10-23T12:10:17.855Z,2.80
2022-10-23T12:12:56.420Z,2.47
2022-10-23T12:15:25.965Z,2.90
2022-10-23T12:18:14.566Z,3.58
2022-10-23T12:20:47.451Z,2.92
2022-10-23T12:23:48.459Z,2.83
2022-10-23T12:26:31.877Z,2.75
2022-10-23T12:29:42.188Z,3.65
2022-10-23T12:32:17.723Z,3.58
2022-10-23T12:35:48.752Z,4.20
2022-10-23T12:38:21.346Z,3.08
2022-10-23T12:41:06.270Z,2.90
2022-10-23T12:43:36.402Z,3.90
2022-10-23T12:46:23.363Z,2.97
2022-10-23T12:48:52.851Z,2.85
2022-10-23T12:51:31.355Z,5.03
2022-10-23T12:53:58.162Z,3.40
2022-10-23T12:56:27.125Z,3.60
2022-10-23T12:58:57.874Z,3.30
2022-10-23T13:01:33.455Z,3.13
2022-10-23T13:04:16.307Z,2.75
2022-10-23T13:06:43.945Z,3.60
2022-10-23T13:09:24.572Z,2.47
2022-10-23T13:11:52.237Z,2.75
2022-10-23T13:14:38.221Z,3.63
2022-10-23T13:17:10.386Z,4.18
2022-10-23T13:19:37.662Z,4.13
2022-10-23T13:22:15.339Z,2.63
2022-10-23T13:24:42.430Z,2.75
2022-10-23T13:27:41.859Z,3.17
2022-10-23T13:30:33.350Z,2.90
2022-10-23T13:43:00.435Z,3.35
2022-10-23T13:45:27.538Z,3.28
2022-10-23T13:47:54.274Z,2.70
2022-10-23T13:50:44.933Z,3.33
2022-10-23T13:53:23.224Z,3.17
2022-10-23T13:58:43.103Z,13.00
2022-10-23T14:01:21.076Z,10.50
2022-10-23T14:03:48.838Z,9.70
2022-10-23T14:06:15.545Z,7.25
2022-10-23T14:08:42.389Z,12.38
2022-10-23T14:13:42.049Z,7.95
2022-10-23T14:16:12.637Z,11.25
2022-10-23T14:18:39.301Z,10.23
2022-10-23T14:21:07.450Z,12.40
2022-10-23T14:23:34.272Z,11.00
2022-10-23T14:26:04.785Z,9.13
2022-10-23T14:28:31.755Z,9.32
2022-10-23T14:31:03.132Z,13.35
2022-10-23T14:33:31.801Z,10.55
2022-10-23T14:35:58.676Z,11.35
2022-10-23T14:39:29.877Z,11.30
2022-10-23T14:41:56.828Z,11.18
2022-10-23T14:44:23.704Z,13.30
2022-10-23T14:47:14.716Z,10.60
2022-10-23T14:52:09.284Z,14.68
2022-10-23T14:54:36.427Z,10.13
2022-10-23T14:57:03.937Z,11.65
2022-10-23T14:59:30.837Z,11.25
2022-10-23T15:01:57.554Z,16.98
2022-10-23T15:04:24.565Z,9.52
2022-10-23T15:06:51.768Z,10.60
2022-10-23T15:09:20.214Z,11.77
2022-10-23T15:11:47.296Z,10.45
2022-10-23T15:14:14.071Z,11.07
2022-10-23T15:16:43.436Z,10.57
2022-10-23T15:19:15.133Z,10.18
2022-10-23T15:21:45.292Z,14.70
2022-10-23T15:24:11.916Z,11.35
2022-10-23T15:26:39.562Z,10.15
2022-10-23T15:29:06.636Z,9.95
2022-10-23T15:31:40.837Z,12.95
2022-10-23T15:34:18.075Z,8.18
2022-10-23T15:36:46.768Z,10.45
2022-10-23T15:39:16.162Z,12.82
2022-10-23T15:41:43.862Z,10.43
2022-10-23T15:44:15.098Z,15.43
2022-10-23T15:46:42.493Z,9.20
2022-10-23T15:49:21.271Z,13.18
2022-10-23T15:51:47.922Z,13.27
2022-10-23T15:54:17.076Z,14.90
2022-10-23T15:56:48.302Z,10.18
2022-10-23T15:59:15.900Z,12.73
2022-10-23T16:01:42.830Z,12.07
2022-10-23T16:04:09.858Z,10.48
2022-10-23T16:06:36.764Z,9.70
2022-10-23T16:09:03.730Z,11.35
2022-10-23T16:11:33.720Z,7.32
2022-10-23T16:14:01.599Z,13.73
2022-10-23T16:16:29.245Z,10.30
2022-10-23T16:18:58.383Z,10.75
2022-10-23T16:21:27.410Z,10.77
2022-10-23T16:23:58.579Z,10.57
2022-10-23T16:26:26.219Z,13.35
2022-10-23T16:29:05.270Z,14.57
2022-10-23T16:31:32.603Z,11.88
2022-10-23T16:34:01.257Z,13.32
2022-10-23T16:36:29.255Z,13.13
2022-10-23T16:38:56.133Z,9.52
2022-10-23T16:41:22.821Z,10.70
2022-10-23T16:43:49.758Z,12.52
2022-10-23T16:46:21.013Z,14.48
2022-10-23T16:48:49.144Z,14.98
2022-10-23T16:51:18.485Z,14.60
2022-10-23T16:53:46.235Z,14.32
2022-10-23T16:56:15.301Z,12.00
2022-10-23T16:58:42.570Z,11.98
2022-10-23T17:01:12.295Z,12.50
2022-10-23T17:03:42.596Z,14.07
2022-10-23T17:06:11.777Z,13.55
2022-10-23T17:08:39.720Z,13.90
2022-10-23T17:11:10.884Z,15.02
2022-10-23T17:13:42.109Z,16.00
2022-10-23T17:16:10.579Z,14.38
2022-10-23T17:18:41.298Z,15.65
2022-10-23T17:21:11.078Z,15.80
2022-10-23T17:23:37.799Z,16.10
2022-10-23T17:26:13.411Z,16.23
2022-10-23T17:28:42.261Z,15.05
2022-10-23T17:31:13.479Z,11.75
2022-10-23T17:33:41.009Z,13.35
2022-10-23T17:36:08.282Z,14.68
2022-10-23T17:38:37.387Z,12.80
2022-10-23T17:41:05.149Z,13.85
2022-10-23T17:43:32.072Z,17.83
2022-10-23T17:45:59.243Z,22.83
2022-10-23T17:48:26.939Z,24.05
2022-10-23T17:51:05.715Z,19.85
2022-10-23T17:53:33.587Z,22.17
2022-10-23T17:56:05.134Z,22.38
2022-10-23T17:58:32.604Z,22.88
2022-10-23T18:01:07.322Z,21.65
2022-10-23T18:03:34.353Z,17.27
2022-10-23T18:06:18.783Z,14.40
2022-10-23T18:08:46.104Z,17.95
2022-10-23T18:11:34.676Z,13.93
2022-10-23T18:14:02.413Z,14.10
2022-10-23T18:16:29.339Z,13.13
2022-10-23T18:18:58.539Z,13.30
2022-10-23T18:21:25.369Z,16.13
2022-10-23T18:23:52.550Z,22.27
2022-10-23T18:26:31.107Z,21.02
2022-10-23T18:28:59.571Z,17.60
2022-10-23T18:31:29.661Z,21.10
2022-10-23T18:34:03.093Z,16.08
2022-10-23T18:36:33.094Z,20.35
2022-10-23T18:39:00.251Z,19.25
2022-10-23T18:41:28.043Z,17.98
2022-10-23T18:43:55.160Z,19.48
2022-10-23T18:46:22.054Z,13.10
2022-10-23T18:48:50.808Z,15.77
2022-10-23T18:51:22.562Z,15.50
2022-10-23T18:53:49.838Z,11.30
2022-10-23T18:56:23.204Z,13.50
2022-10-23T18:58:58.418Z,11.32
2022-10-23T19:01:27.182Z,12.75
2022-10-23T19:06:23.137Z,14.80
2022-10-23T19:08:50.335Z,17.45
2022-10-23T19:11:20.812Z,11.40
2022-10-23T19:13:47.467Z,17.25
2022-10-23T19:16:37.385Z,15.65
2022-10-23T19:19:14.583Z,16.27
2022-10-23T19:21:42.794Z,14.35
2022-10-23T19:24:15.550Z,16.05
2022-10-23T19:26:43.597Z,13.88
2022-10-23T19:29:13.381Z,11.35
2022-10-23T19:31:44.625Z,14.95
2022-10-23T19:34:11.491Z,13.48
2022-10-23T19:36:38.142Z,13.15
2022-10-23T19:39:04.806Z,11.90
2022-10-23T19:41:32.087Z,10.23
2022-10-23T19:43:58.826Z,14.18
2022-10-23T19:46:26.701Z,12.77
2022-10-23T19:48:53.422Z,14.38
2022-10-23T19:51:20.203Z,11.18
2022-10-23T19:53:46.902Z,11.20
2022-10-23T19:56:13.880Z,11.50
2022-10-23T19:58:41.034Z,11.10
2022-10-23T20:01:13.729Z,13.13
2022-10-23T20:03:42.139Z,15.32
2022-10-23T20:06:11.372Z,11.25
2022-10-23T20:08:38.418Z,13.10
2022-10-23T20:11:05.646Z,9.93
2022-10-23T20:13:32.756Z,12.43
2022-10-23T20:15:59.410Z,10.73
2022-10-23T20:18:26.150Z,10.90
2022-10-23T20:20:53.462Z,15.00
2022-10-23T20:23:20.119Z,13.57
2022-10-23T20:25:46.895Z,16.02
2022-10-23T20:28:15.164Z,11.82
2022-10-23T20:30:46.002Z,12.85
2022-10-23T20:33:12.709Z,11.57
2022-10-23T20:35:44.998Z,12.88
2022-10-23T20:38:11.784Z,13.02
2022-10-23T20:40:42.199Z,9.88
2022-10-23T20:43:10.774Z,8.98
2022-10-23T20:45:38.860Z,10.40
2022-10-23T20:48:06.143Z,7.85
2022-10-23T20:50:54.347Z,10.43
2022-10-23T20:53:23.471Z,10.07
2022-10-23T20:55:51.216Z,9.32
2022-10-23T20:58:41.307Z,10.05
2022-10-23T21:01:14.053Z,8.00
2022-10-23T21:03:43.670Z,9.00
2022-10-23T21:06:13.035Z,16.65
2022-10-23T21:08:40.948Z,9.27
2022-10-23T21:11:11.683Z,8.70
2022-10-23T21:13:42.731Z,8.90
2022-10-23T21:17:06.281Z,11.25
2022-10-23T21:22:25.938Z,10.85
2022-10-23T21:24:54.975Z,11.27
2022-10-23T21:27:21.670Z,7.63
2022-10-23T21:29:56.035Z,8.38
2022-10-23T21:32:22.738Z,9.77
2022-10-23T21:34:50.569Z,10.30
2022-10-23T21:37:18.506Z,8.77
2022-10-23T21:40:05.737Z,8.40
2022-10-23T21:42:33.644Z,9.48
2022-10-23T21:45:00.319Z,12.02
2022-10-23T21:47:32.911Z,9.57
2022-10-23T21:50:02.709Z,12.57
2022-10-23T21:52:31.857Z,8.32
2022-10-23T21:54:58.526Z,10.32
2022-10-23T21:57:25.253Z,11.55
2022-10-23T21:59:54.298Z,11.38
2022-10-23T22:02:25.703Z,13.05
2022-10-23T22:04:52.667Z,11.85
2022-10-23T22:07:19.573Z,12.30
2022-10-23T22:09:46.303Z,7.03
2022-10-23T22:12:13.114Z,10.13
2022-10-23T22:14:42.643Z,8.48
2022-10-23T22:17:15.380Z,14.35
2022-10-23T22:19:42.273Z,8.07
2022-10-23T22:22:10.406Z,8.10
2022-10-23T22:24:43.472Z,9.65
2022-10-23T22:27:10.208Z,7.63
2022-10-23T22:29:44.330Z,9.05
2022-10-23T22:32:13.430Z,8.38
2022-10-23T22:34:55.398Z,5.63
2022-10-23T22:37:22.135Z,7.18
2022-10-23T22:39:52.743Z,7.80
2022-10-23T22:42:20.540Z,8.38
2022-10-23T22:44:48.357Z,10.55
2022-10-23T22:47:22.531Z,7.47
2022-10-23T22:49:49.197Z,6.13
2022-10-23T22:52:15.921Z,6.63
2022-10-23T22:54:45.101Z,8.77
2022-10-23T22:57:12.950Z,7.50
2022-10-23T22:59:42.146Z,9.98
2022-10-23T23:02:12.926Z,6.38
2022-10-23T23:04:43.949Z,7.22
2022-10-23T23:07:12.515Z,10.57
2022-10-23T23:09:47.419Z,9.18
2022-10-23T23:12:14.635Z,6.80
2022-10-23T23:14:42.026Z,11.50
2022-10-23T23:17:13.911Z,11.15
2022-10-23T23:20:15.051Z,9.05
2022-10-23T23:22:41.953Z,7.40
2022-10-23T23:25:22.174Z,8.43
2022-10-23T23:30:36.263Z,7.93
2022-10-23T23:33:03.111Z,7.38
2022-10-23T23:35:32.161Z,7.72
2022-10-23T23:38:04.768Z,9.73
2022-10-23T23:40:33.842Z,8.70
2022-10-23T23:43:03.158Z,9.40
2022-10-23T23:45:33.110Z,8.00
2022-10-23T23:48:22.155Z,7.32
2022-10-23T23:50:47.266Z,9.48
2022-10-23T23:53:13.971Z,11.15
2022-10-23T23:55:46.845Z,8.55
2022-10-23T23:58:13.925Z,9.63
